createdAt,value
2023-05-09T00:00:57.632Z,28.75
2023-05-09T00:06:03.523Z,28.00
2023-05-09T00:11:08.345Z,27.00
2023-05-09T00:16:13.522Z,28.50
2023-05-09T00:21:18.545Z,30.00
2023-05-09T00:26:23.786Z,25.25
2023-05-09T00:31:28.608Z,29.00
2023-05-09T00:36:34.059Z,29.00
2023-05-09T00:41:39.302Z,29.00
2023-05-09T00:46:44.155Z,26.25
2023-05-09T00:51:49.679Z,27.50
2023-05-09T00:56:54.580Z,28.50
2023-05-09T01:01:59.662Z,29.00
2023-05-09T01:07:16.437Z,24.50
2023-05-09T01:12:28.457Z,26.25
2023-05-09T01:17:39.178Z,28.75
2023-05-09T01:22:47.681Z,27.25
2023-05-09T01:28:13.151Z,29.25
2023-05-09T01:33:20.042Z,24.75
2023-05-09T01:38:26.137Z,23.50
2023-05-09T01:43:31.986Z,25.25
2023-05-09T01:48:38.262Z,24.25
2023-05-09T01:53:44.060Z,26.25
2023-05-09T01:58:51.537Z,29.50
2023-05-09T02:03:56.684Z,29.00
2023-05-09T02:09:01.699Z,26.25
2023-05-09T02:14:08.840Z,30.25
2023-05-09T02:19:13.887Z,31.00
2023-05-09T02:24:19.236Z,33.25
2023-05-09T02:29:27.885Z,26.25
2023-05-09T02:34:33.458Z,28.25
2023-05-09T02:39:39.191Z,27.25
2023-05-09T02:44:43.974Z,28.75
2023-05-09T02:49:49.306Z,29.00
2023-05-09T02:54:54.212Z,28.50
2023-05-09T02:59:59.087Z,24.25
2023-05-09T03:05:04.816Z,27.75
2023-05-09T03:10:14.992Z,26.75
2023-05-09T03:15:20.195Z,28.00
2023-05-09T03:20:25.094Z,28.75
2023-05-09T03:25:30.193Z,25.75
2023-05-09T03:30:34.927Z,28.75
2023-05-09T03:35:40.916Z,28.25
2023-05-09T03:40:46.316Z,23.00
2023-05-09T03:45:52.410Z,26.25
2023-05-09T03:50:57.568Z,24.25
2023-05-09T03:56:05.088Z,21.00
2023-05-09T04:01:15.611Z,27.75
2023-05-09T04:06:22.168Z,28.25
2023-05-09T04:11:27.418Z,22.50
2023-05-09T04:16:33.171Z,36.00
2023-05-09T04:21:38.608Z,35.25
2023-05-09T04:26:43.666Z,37.75
2023-05-09T04:31:52.817Z,33.25
2023-05-09T04:37:01.404Z,38.25
2023-05-09T04:42:07.103Z,37.25
2023-05-09T04:47:12.195Z,34.75
2023-05-09T04:52:17.144Z,35.00
2023-05-09T04:57:21.900Z,36.75
2023-05-09T05:02:32.359Z,35.50
2023-05-09T05:07:37.678Z,35.00
2023-05-09T05:12:42.813Z,34.25
2023-05-09T05:17:50.223Z,36.00
2023-05-09T05:22:59.678Z,39.00
2023-05-09T05:28:06.025Z,34.25
2023-05-09T05:33:11.274Z,35.50
2023-05-09T05:38:16.543Z,34.50
2023-05-09T05:43:26.001Z,32.75
2023-05-09T05:48:30.925Z,32.00
2023-05-09T05:53:36.182Z,31.75
2023-05-09T05:58:41.047Z,34.00
2023-05-09T06:03:45.713Z,33.50
2023-05-09T06:08:51.606Z,31.75
2023-05-09T06:13:57.857Z,31.00
2023-05-09T06:19:02.736Z,29.50
2023-05-09T06:24:14.108Z,31.00
2023-05-09T06:29:21.325Z,30.00
2023-05-09T06:34:25.510Z,28.75
2023-05-09T06:39:30.056Z,31.00
2023-05-09T06:44:34.510Z,27.00
2023-05-09T06:49:38.990Z,24.25
2023-05-09T06:54:43.320Z,24.00
2023-05-09T06:59:48.026Z,22.25
2023-05-09T07:04:52.714Z,20.50
2023-05-09T07:10:07.385Z,22.50
2023-05-09T07:15:22.691Z,24.25
2023-05-09T07:20:33.793Z,23.00
2023-05-09T07:25:38.854Z,21.75
2023-05-09T07:30:45.019Z,21.00
2023-05-09T07:35:50.359Z,20.00
2023-05-09T07:40:55.256Z,24.75
2023-05-09T07:46:00.259Z,22.00
2023-05-09T07:51:04.858Z,18.25
2023-05-09T07:56:09.271Z,25.00
2023-05-09T08:01:13.593Z,22.75
2023-05-09T08:06:18.159Z,17.00
2023-05-09T08:11:23.057Z,21.50
2023-05-09T08:16:27.588Z,20.75
2023-05-09T08:21:32.084Z,19.25
2023-05-09T08:26:36.933Z,20.00
2023-05-09T08:31:41.349Z,19.00
2023-05-09T08:36:48.351Z,22.75
2023-05-09T08:41:53.716Z,20.00
2023-05-09T08:47:00.378Z,21.75
2023-05-09T08:52:04.941Z,27.75
2023-05-09T08:57:09.646Z,28.25
2023-05-09T09:02:15.901Z,27.25
2023-05-09T09:07:21.248Z,30.50
2023-05-09T09:12:26.464Z,30.25
2023-05-09T09:17:32.336Z,28.00
2023-05-09T09:22:37.201Z,26.50
2023-05-09T09:27:43.324Z,24.50
2023-05-09T09:32:48.016Z,24.25
2023-05-09T09:38:00.021Z,27.25
2023-05-09T09:43:08.663Z,23.75
2023-05-09T09:48:13.216Z,32.00
2023-05-09T09:53:17.811Z,29.50
2023-05-09T09:58:26.645Z,29.50
2023-05-09T10:03:37.167Z,26.25
2023-05-09T10:08:44.968Z,26.50
2023-05-09T10:13:49.514Z,23.00
2023-05-09T10:18:53.750Z,25.75
2023-05-09T10:23:58.767Z,26.25
2023-05-09T10:29:07.734Z,21.50
2023-05-09T10:34:15.027Z,26.50
2023-05-09T10:39:20.472Z,26.25
2023-05-09T10:44:25.584Z,23.25
2023-05-09T10:49:30.382Z,21.25
2023-05-09T10:54:38.233Z,24.00
2023-05-09T10:59:43.470Z,23.75
2023-05-09T11:04:48.080Z,24.00
2023-05-09T11:10:09.020Z,22.25
2023-05-09T11:15:14.385Z,20.50
2023-05-09T11:20:19.031Z,19.75
2023-05-09T11:25:27.338Z,22.50
2023-05-09T11:30:42.942Z,21.50
2023-05-09T11:35:47.261Z,17.25
2023-05-09T11:40:53.426Z,16.75
2023-05-09T11:45:58.673Z,20.25
2023-05-09T11:51:03.484Z,16.75
2023-05-09T11:56:07.983Z,18.75
2023-05-09T12:01:15.523Z,16.00
2023-05-09T12:06:21.026Z,17.25
2023-05-09T12:11:26.380Z,13.75
2023-05-09T12:16:32.697Z,15.00
2023-05-09T12:21:37.162Z,15.25
2023-05-09T12:26:41.808Z,18.00
2023-05-09T12:31:46.520Z,15.50
2023-05-09T12:36:54.602Z,15.25
2023-05-09T12:42:02.057Z,19.00
2023-05-09T12:47:07.620Z,17.00
2023-05-09T12:52:19.645Z,16.00
2023-05-09T12:57:25.611Z,14.75
2023-05-09T13:02:35.743Z,16.50
2023-05-09T13:07:44.357Z,16.25
2023-05-09T13:12:53.720Z,13.00
2023-05-09T13:17:59.251Z,13.25
2023-05-09T13:23:04.569Z,15.50
2023-05-09T13:28:10.209Z,18.50
2023-05-09T13:33:25.959Z,13.25
2023-05-09T13:38:38.233Z,12.75
2023-05-09T13:43:44.053Z,15.75
2023-05-09T13:48:49.364Z,12.75
2023-05-09T13:53:56.181Z,11.75
2023-05-09T13:59:13.281Z,14.50
2023-05-09T14:04:18.704Z,14.00
2023-05-09T14:09:23.861Z,14.50
2023-05-09T14:14:28.292Z,12.50
2023-05-09T14:19:34.244Z,13.00
2023-05-09T14:24:42.084Z,11.25
2023-05-09T14:29:47.367Z,12.00
2023-05-09T14:34:52.890Z,12.50
2023-05-09T14:39:58.198Z,12.25
2023-05-09T14:45:02.997Z,13.00
2023-05-09T14:50:08.714Z,10.50
2023-05-09T14:55:13.993Z,11.50
2023-05-09T15:00:22.500Z,11.50
2023-05-09T15:05:28.010Z,12.00
2023-05-09T15:10:34.141Z,10.75
2023-05-09T15:15:44.114Z,10.50
2023-05-09T15:20:54.949Z,13.25
2023-05-09T15:26:00.125Z,11.25
2023-05-09T15:31:07.263Z,9.00
2023-05-09T15:36:12.061Z,9.50
2023-05-09T15:41:20.023Z,10.50
2023-05-09T15:46:25.373Z,9.75
2023-05-09T15:51:32.169Z,10.50
2023-05-09T15:56:37.337Z,10.00
2023-05-09T16:01:42.922Z,10.75
2023-05-09T16:06:53.228Z,8.00
2023-05-09T16:11:59.578Z,11.25
2023-05-09T16:17:04.684Z,10.25
2023-05-09T16:22:13.005Z,9.25
2023-05-09T16:27:18.659Z,12.25
2023-05-09T16:32:25.217Z,10.50
2023-05-09T16:37:32.202Z,10.00
2023-05-09T16:42:44.301Z,8.75
2023-05-09T16:47:49.200Z,11.50
2023-05-09T16:52:54.930Z,11.50
2023-05-09T16:58:00.102Z,9.00
2023-05-09T17:03:05.021Z,7.50
2023-05-09T17:08:10.254Z,9.00
2023-05-09T17:13:15.642Z,8.75
2023-05-09T17:18:33.270Z,10.00
2023-05-09T17:23:43.254Z,9.50
2023-05-09T17:28:48.378Z,11.25
2023-05-09T17:33:53.684Z,8.75
2023-05-09T17:38:58.809Z,8.50
2023-05-09T17:44:03.819Z,6.50
2023-05-09T17:49:14.993Z,9.00
2023-05-09T17:54:22.783Z,8.00
2023-05-09T17:59:28.400Z,9.75
2023-05-09T18:04:35.554Z,9.75
2023-05-09T18:09:40.478Z,7.00
2023-05-09T18:14:45.414Z,9.25
2023-05-09T18:19:50.571Z,7.75
2023-05-09T18:24:55.694Z,8.25
2023-05-09T18:30:00.651Z,7.50
2023-05-09T18:35:05.594Z,9.75
2023-05-09T18:40:16.427Z,8.00
2023-05-09T18:45:22.748Z,9.75
2023-05-09T18:50:27.756Z,9.00
2023-05-09T18:55:32.824Z,6.50
2023-05-09T19:00:37.996Z,8.00
2023-05-09T19:05:43.337Z,7.75
2023-05-09T19:10:48.030Z,6.00
2023-05-09T19:15:53.045Z,6.50
2023-05-09T19:20:59.250Z,9.00
2023-05-09T19:26:04.956Z,8.25
2023-05-09T19:31:10.466Z,6.75
2023-05-09T19:36:15.501Z,8.00
2023-05-09T19:41:20.275Z,7.25
2023-05-09T19:46:25.330Z,8.00
2023-05-09T19:51:30.958Z,6.25
2023-05-09T19:56:35.764Z,8.00
2023-05-09T20:01:40.687Z,10.50
2023-05-09T20:06:46.622Z,9.00
2023-05-09T20:11:51.836Z,6.75
2023-05-09T20:16:56.622Z,6.00
2023-05-09T20:22:02.541Z,6.50
2023-05-09T20:27:07.577Z,7.75
2023-05-09T20:32:12.620Z,8.25
2023-05-09T20:37:17.506Z,6.00
2023-05-09T20:42:22.455Z,6.00
2023-05-09T20:47:28.020Z,7.50
2023-05-09T20:52:32.663Z,6.75
2023-05-09T20:57:37.713Z,9.00
2023-05-09T21:02:42.903Z,6.50
2023-05-09T21:07:47.812Z,8.00
2023-05-09T21:12:52.732Z,7.50
2023-05-09T21:17:58.488Z,10.50
2023-05-09T21:23:03.325Z,6.75
2023-05-09T21:28:08.611Z,6.00
2023-05-09T21:33:13.493Z,6.25
2023-05-09T21:38:18.245Z,7.00
2023-05-09T21:43:23.660Z,8.00
2023-05-09T21:48:28.593Z,8.25
2023-05-09T21:53:33.410Z,5.25
2023-05-09T21:58:39.162Z,6.25
2023-05-09T22:03:44.659Z,9.25
2023-05-09T22:08:49.494Z,7.50
2023-05-09T22:13:54.212Z,7.25
2023-05-09T22:18:58.985Z,7.00
2023-05-09T22:24:03.707Z,7.75
2023-05-09T22:29:08.899Z,10.75
2023-05-09T22:34:13.853Z,9.25
2023-05-09T22:39:18.794Z,10.50
2023-05-09T22:44:23.595Z,9.00
2023-05-09T22:49:28.215Z,8.00
2023-05-09T22:54:32.836Z,9.50
2023-05-09T22:59:38.334Z,10.50
2023-05-09T23:04:43.295Z,9.25
2023-05-09T23:09:48.113Z,13.25
2023-05-09T23:14:53.163Z,10.25
2023-05-09T23:19:57.899Z,11.75
2023-05-09T23:25:03.014Z,13.25
2023-05-09T23:30:08.925Z,13.25
2023-05-09T23:35:13.811Z,12.25
2023-05-09T23:40:18.775Z,10.50
2023-05-09T23:45:24.211Z,12.75
2023-05-09T23:50:29.264Z,11.50
2023-05-09T23:55:34.226Z,11.00
